createdAt,value
2019-03-30T00:02:23.407Z,26.15
2019-03-30T00:04:55.407Z,25.68
2019-03-30T00:07:27.179Z,21.15
2019-03-30T00:09:58.815Z,35.73
2019-03-30T00:12:41.338Z,42.65
2019-03-30T00:15:32.644Z,35.45
2019-03-30T00:18:04.693Z,29.20
2019-03-30T00:20:36.559Z,26.90
2019-03-30T00:23:08.349Z,27.93
2019-03-30T00:25:40.082Z,26.35
2019-03-30T00:28:11.655Z,28.73
2019-03-30T00:30:43.302Z,24.75
2019-03-30T00:33:15.164Z,23.10
2019-03-30T00:35:47.157Z,18.37
2019-03-30T00:38:19.011Z,23.57
2019-03-30T00:40:50.668Z,23.62
2019-03-30T00:43:22.216Z,23.12
2019-03-30T00:45:54.080Z,22.37
2019-03-30T00:48:25.705Z,20.55
2019-03-30T00:50:57.375Z,25.75
2019-03-30T00:53:29.694Z,21.65
2019-03-30T00:56:01.504Z,18.57
2019-03-30T00:58:33.160Z,23.22
2019-03-30T01:01:05.034Z,20.50
2019-03-30T01:03:36.605Z,21.12
2019-03-30T01:06:08.659Z,21.68
2019-03-30T01:08:40.720Z,18.12
2019-03-30T01:11:12.574Z,21.27
2019-03-30T01:13:44.254Z,19.57
2019-03-30T01:16:15.883Z,20.32
2019-03-30T01:18:47.656Z,20.82
2019-03-30T01:21:19.420Z,21.02
2019-03-30T01:23:51.479Z,18.65
2019-03-30T01:26:23.649Z,19.65
2019-03-30T01:28:55.818Z,18.92
2019-03-30T01:31:27.586Z,24.60
2019-03-30T01:33:59.147Z,20.12
2019-03-30T01:36:30.998Z,21.20
2019-03-30T01:39:02.737Z,19.85
2019-03-30T01:41:34.294Z,20.90
2019-03-30T01:44:06.165Z,17.42
2019-03-30T01:46:37.926Z,23.22
2019-03-30T01:49:09.592Z,23.85
2019-03-30T01:51:41.468Z,19.27
2019-03-30T01:54:13.449Z,22.82
2019-03-30T01:56:45.215Z,18.30
2019-03-30T01:59:16.833Z,18.25
2019-03-30T02:01:48.468Z,19.90
2019-03-30T02:04:20.758Z,21.37
2019-03-30T02:06:52.942Z,24.15
2019-03-30T02:09:24.707Z,16.93
2019-03-30T02:11:56.541Z,18.87
2019-03-30T02:14:28.343Z,18.32
2019-03-30T02:17:00.152Z,17.20
2019-03-30T02:19:31.930Z,20.12
2019-03-30T02:22:03.807Z,18.35
2019-03-30T02:24:55.152Z,23.22
2019-03-30T02:27:27.084Z,19.92
2019-03-30T02:29:58.830Z,20.52
2019-03-30T02:32:50.662Z,23.60
2019-03-30T02:35:26.278Z,21.60
2019-03-30T02:37:55.537Z,17.10
2019-03-30T02:40:27.900Z,22.32
2019-03-30T02:42:59.671Z,16.52
2019-03-30T02:45:31.516Z,16.87
2019-03-30T02:48:04.365Z,16.52
2019-03-30T02:50:56.011Z,18.12
2019-03-30T02:53:27.821Z,17.92
2019-03-30T02:56:00.358Z,17.10
2019-03-30T02:58:32.351Z,18.35
2019-03-30T03:01:04.866Z,18.17
2019-03-30T03:03:37.421Z,17.48
2019-03-30T03:06:10.501Z,20.97
2019-03-30T03:08:43.040Z,21.30
2019-03-30T03:11:14.809Z,18.95
2019-03-30T03:13:46.457Z,19.50
2019-03-30T03:16:18.325Z,16.57
2019-03-30T03:18:49.968Z,18.75
2019-03-30T03:21:21.732Z,16.07
2019-03-30T03:23:53.432Z,17.90
2019-03-30T03:26:25.151Z,23.15
2019-03-30T03:28:57.710Z,19.15
2019-03-30T03:31:29.908Z,19.98
2019-03-30T03:34:37.722Z,16.95
2019-03-30T03:37:09.675Z,19.57
2019-03-30T03:39:41.249Z,20.43
2019-03-30T03:42:13.114Z,16.75
2019-03-30T03:44:44.944Z,17.92
2019-03-30T03:47:36.427Z,19.20
2019-03-30T03:50:08.956Z,17.27
2019-03-30T03:52:40.826Z,20.65
2019-03-30T03:55:15.138Z,21.05
2019-03-30T03:57:48.329Z,20.82
2019-03-30T04:00:20.092Z,22.67
2019-03-30T04:02:53.397Z,21.95
2019-03-30T04:05:28.731Z,18.37
2019-03-30T04:08:04.103Z,18.12
2019-03-30T04:10:38.085Z,17.57
2019-03-30T04:13:30.544Z,18.35
2019-03-30T04:16:02.106Z,18.65
2019-03-30T04:18:52.479Z,21.95
2019-03-30T04:21:42.155Z,19.70
2019-03-30T04:24:46.178Z,14.80
2019-03-30T04:27:17.733Z,16.27
2019-03-30T04:30:09.128Z,16.82
2019-03-30T04:32:40.722Z,19.45
2019-03-30T04:35:12.441Z,16.05
2019-03-30T04:37:44.639Z,16.40
2019-03-30T04:40:16.512Z,18.55
2019-03-30T04:42:48.190Z,16.42
2019-03-30T04:45:19.999Z,17.85
2019-03-30T04:47:51.689Z,15.93
2019-03-30T04:50:24.651Z,19.57
2019-03-30T04:52:59.812Z,17.02
2019-03-30T04:55:32.351Z,14.38
2019-03-30T04:58:04.138Z,14.80
2019-03-30T05:00:36.355Z,13.95
2019-03-30T05:03:11.466Z,17.50
2019-03-30T05:05:43.367Z,15.63
2019-03-30T05:08:15.487Z,13.70
2019-03-30T05:10:47.236Z,17.65
2019-03-30T05:13:19.317Z,16.02
2019-03-30T05:15:50.978Z,16.48
2019-03-30T05:18:24.562Z,17.77
2019-03-30T05:20:56.327Z,16.00
2019-03-30T05:23:28.103Z,13.83
2019-03-30T05:26:00.562Z,14.18
2019-03-30T05:28:32.244Z,17.70
2019-03-30T05:31:04.103Z,16.12
2019-03-30T05:33:55.888Z,16.90
2019-03-30T05:36:27.820Z,18.60
2019-03-30T05:38:59.753Z,19.98
2019-03-30T05:41:31.419Z,13.55
2019-03-30T05:44:03.073Z,19.27
2019-03-30T05:57:21.629Z,17.60
2019-03-30T05:59:55.909Z,17.27
2019-03-30T06:02:29.498Z,14.90
2019-03-30T06:05:03.680Z,17.97
2019-03-30T06:07:36.797Z,16.25
2019-03-30T06:10:09.862Z,16.77
2019-03-30T06:12:46.627Z,17.52
2019-03-30T06:15:19.336Z,18.42
2019-03-30T06:17:51.277Z,19.60
2019-03-30T06:20:23.073Z,15.93
2019-03-30T06:22:55.026Z,20.65
2019-03-30T06:25:28.360Z,18.57
2019-03-30T06:28:07.668Z,16.87
2019-03-30T06:30:39.491Z,16.57
2019-03-30T06:33:11.773Z,17.92
2019-03-30T06:35:43.728Z,18.48
2019-03-30T06:38:19.169Z,15.72
2019-03-30T06:40:50.746Z,18.50
2019-03-30T06:43:23.619Z,16.55
2019-03-30T06:45:57.160Z,18.35
2019-03-30T06:48:29.281Z,17.90
2019-03-30T06:51:01.142Z,15.70
2019-03-30T06:53:32.906Z,14.23
2019-03-30T06:56:04.749Z,18.70
2019-03-30T06:58:36.630Z,22.48
2019-03-30T07:03:51.640Z,15.28
2019-03-30T07:06:23.879Z,13.10
2019-03-30T07:08:58.111Z,19.52
2019-03-30T07:11:32.401Z,14.75
2019-03-30T07:14:59.065Z,17.65
2019-03-30T07:17:32.967Z,14.97
2019-03-30T07:20:05.748Z,13.85
2019-03-30T07:22:37.520Z,16.15
2019-03-30T07:25:29.261Z,16.30
2019-03-30T07:28:01.019Z,12.60
2019-03-30T07:30:32.874Z,13.85
2019-03-30T07:33:04.549Z,13.95
2019-03-30T07:35:36.407Z,16.97
2019-03-30T07:38:09.304Z,14.73
2019-03-30T07:40:41.257Z,14.47
2019-03-30T07:43:13.006Z,13.10
2019-03-30T07:46:05.561Z,15.90
2019-03-30T07:48:37.417Z,15.65
2019-03-30T07:51:09.288Z,13.55
2019-03-30T07:53:44.717Z,16.80
2019-03-30T07:56:14.041Z,14.20
2019-03-30T07:58:46.854Z,12.85
2019-03-30T08:01:21.015Z,14.78
2019-03-30T08:03:53.579Z,11.22
2019-03-30T08:06:25.996Z,15.68
2019-03-30T08:08:57.750Z,14.78
2019-03-30T08:11:29.507Z,17.60
2019-03-30T08:14:01.555Z,14.30
2019-03-30T08:16:34.970Z,12.35
2019-03-30T08:19:08.861Z,14.75
2019-03-30T08:21:41.871Z,15.70
2019-03-30T08:25:01.536Z,19.23
2019-03-30T08:27:33.591Z,14.13
2019-03-30T08:30:05.365Z,16.00
2019-03-30T08:32:37.023Z,17.62
2019-03-30T08:35:13.282Z,15.85
2019-03-30T08:37:44.922Z,14.00
2019-03-30T08:40:19.981Z,12.10
2019-03-30T08:42:52.972Z,12.50
2019-03-30T08:45:25.345Z,14.98
2019-03-30T08:47:57.203Z,16.12
2019-03-30T08:50:42.326Z,13.15
2019-03-30T08:53:14.039Z,12.90
2019-03-30T08:55:45.892Z,15.72
2019-03-30T08:58:17.567Z,18.10
2019-03-30T09:00:49.313Z,12.63
2019-03-30T09:03:22.709Z,13.78
2019-03-30T09:05:55.301Z,16.12
2019-03-30T09:08:27.592Z,13.60
2019-03-30T09:11:00.958Z,17.67
2019-03-30T09:13:32.847Z,15.70
2019-03-30T09:16:24.462Z,14.25
2019-03-30T09:21:28.688Z,16.10
2019-03-30T09:24:09.352Z,17.55
2019-03-30T09:26:33.430Z,16.60
2019-03-30T09:29:05.312Z,16.65
2019-03-30T09:31:37.141Z,15.05
2019-03-30T09:34:08.687Z,14.83
2019-03-30T09:36:40.490Z,16.87
2019-03-30T09:39:14.009Z,14.05
2019-03-30T09:41:48.409Z,15.48
2019-03-30T09:44:20.145Z,16.75
2019-03-30T09:46:52.022Z,15.45
2019-03-30T09:49:23.663Z,13.08
2019-03-30T09:51:55.605Z,17.27
2019-03-30T09:55:26.968Z,18.20
2019-03-30T09:57:56.509Z,14.60
2019-03-30T10:00:28.563Z,13.95
2019-03-30T10:03:00.438Z,13.62
2019-03-30T10:05:32.151Z,14.35
2019-03-30T10:08:03.834Z,14.35
2019-03-30T10:10:36.240Z,17.35
2019-03-30T10:13:08.055Z,12.82
2019-03-30T10:15:59.484Z,19.45
2019-03-30T10:18:31.031Z,14.95
2019-03-30T10:21:02.909Z,13.05
2019-03-30T10:23:34.975Z,16.67
2019-03-30T10:26:06.846Z,13.50
2019-03-30T10:28:38.707Z,18.12
2019-03-30T10:31:30.429Z,12.93
2019-03-30T10:34:03.712Z,26.93
2019-03-30T10:36:35.706Z,29.55
2019-03-30T10:39:08.734Z,37.80
2019-03-30T10:41:40.668Z,61.73
2019-03-30T10:44:12.334Z,48.38
2019-03-30T10:46:45.388Z,53.10
2019-03-30T10:49:16.944Z,33.08
2019-03-30T10:51:50.252Z,34.23
2019-03-30T10:54:22.083Z,34.90
2019-03-30T10:56:53.874Z,24.40
2019-03-30T10:59:25.825Z,25.65
2019-03-30T11:01:57.654Z,25.50
2019-03-30T11:04:29.358Z,20.27
2019-03-30T11:07:00.996Z,17.82
2019-03-30T11:09:32.745Z,17.92
2019-03-30T11:12:04.969Z,18.00
2019-03-30T11:14:36.566Z,17.07
2019-03-30T11:17:14.098Z,16.60
2019-03-30T11:19:45.635Z,18.60
2019-03-30T11:22:17.477Z,16.93
2019-03-30T11:24:49.571Z,17.50
2019-03-30T11:27:21.133Z,23.07
2019-03-30T11:29:53.591Z,22.20
2019-03-30T11:32:25.764Z,18.85
2019-03-30T11:34:58.136Z,14.87
2019-03-30T11:37:30.914Z,21.30
2019-03-30T11:40:02.591Z,14.30
2019-03-30T11:42:34.662Z,14.60
2019-03-30T11:45:06.919Z,16.12
2019-03-30T11:47:38.665Z,16.35
2019-03-30T11:50:11.971Z,15.30
2019-03-30T11:52:43.709Z,16.82
2019-03-30T11:55:21.621Z,17.60
2019-03-30T11:57:48.381Z,15.58
2019-03-30T12:00:21.349Z,14.07
2019-03-30T12:02:53.024Z,16.37
2019-03-30T12:05:24.915Z,17.10
2019-03-30T12:07:56.729Z,16.37
2019-03-30T12:10:28.412Z,15.60
2019-03-30T12:13:01.333Z,17.67
2019-03-30T12:15:33.255Z,17.87
2019-03-30T12:18:05.315Z,14.87
2019-03-30T12:20:37.883Z,20.48
2019-03-30T12:23:09.668Z,20.43
2019-03-30T12:25:41.711Z,16.77
2019-03-30T12:28:13.671Z,19.27
2019-03-30T12:30:45.258Z,17.62
2019-03-30T12:33:17.409Z,16.67
2019-03-30T12:35:49.468Z,19.12
2019-03-30T12:38:21.223Z,21.45
2019-03-30T12:40:53.026Z,19.95
2019-03-30T12:43:25.865Z,18.07
2019-03-30T12:45:57.551Z,15.40
2019-03-30T12:48:29.188Z,18.62
2019-03-30T12:51:00.896Z,18.05
2019-03-30T12:53:32.613Z,19.15
2019-03-30T12:56:04.478Z,15.70
2019-03-30T12:58:36.028Z,16.50
2019-03-30T13:01:07.765Z,16.90
2019-03-30T13:07:08.745Z,14.75
2019-03-30T13:09:40.554Z,17.67
2019-03-30T13:12:13.379Z,18.65
2019-03-30T13:14:45.491Z,20.68
2019-03-30T13:17:17.793Z,16.60
2019-03-30T13:19:49.606Z,17.57
2019-03-30T13:22:21.378Z,14.65
2019-03-30T13:24:52.919Z,17.20
2019-03-30T13:27:25.094Z,15.90
2019-03-30T13:29:58.191Z,17.62
2019-03-30T13:32:30.048Z,17.57
2019-03-30T13:35:01.793Z,19.10
2019-03-30T13:37:33.559Z,15.10
2019-03-30T13:40:05.530Z,16.37
2019-03-30T13:42:37.184Z,14.33
2019-03-30T13:45:09.963Z,16.23
2019-03-30T13:47:41.723Z,16.62
2019-03-30T13:50:27.305Z,16.87
2019-03-30T13:53:02.134Z,16.52
2019-03-30T13:55:34.594Z,17.25
2019-03-30T13:58:06.676Z,19.85
2019-03-30T14:00:45.638Z,19.95
2019-03-30T14:03:19.426Z,15.75
2019-03-30T14:05:51.293Z,15.38
2019-03-30T14:08:22.999Z,17.60
2019-03-30T14:10:57.123Z,15.35
2019-03-30T14:13:28.706Z,18.52
2019-03-30T14:16:02.281Z,15.05
2019-03-30T14:18:34.171Z,17.45
2019-03-30T14:21:08.903Z,16.20
2019-03-30T14:23:43.739Z,18.07
2019-03-30T14:26:30.412Z,17.73
2019-03-30T14:28:51.288Z,18.42
2019-03-30T14:31:23.133Z,18.37
2019-03-30T14:33:59.880Z,19.75
2019-03-30T14:36:32.411Z,15.23
2019-03-30T14:39:05.843Z,15.05
2019-03-30T14:41:37.632Z,14.53
2019-03-30T14:44:11.939Z,17.62
2019-03-30T14:47:02.435Z,19.02
2019-03-30T14:49:35.350Z,16.20
2019-03-30T14:52:08.166Z,15.20
2019-03-30T14:54:52.071Z,17.30
2019-03-30T14:57:14.750Z,15.80
2019-03-30T14:59:46.628Z,16.57
2019-03-30T15:02:20.983Z,14.07
2019-03-30T15:04:53.414Z,16.30
2019-03-30T15:07:25.423Z,16.75
2019-03-30T15:10:00.058Z,15.48
2019-03-30T15:12:32.009Z,18.63
2019-03-30T15:15:04.678Z,15.78
2019-03-30T15:17:40.313Z,17.32
2019-03-30T15:20:10.987Z,16.40
2019-03-30T15:22:44.828Z,14.90
2019-03-30T15:25:17.153Z,13.65
2019-03-30T15:27:48.826Z,16.17
2019-03-30T15:30:20.867Z,17.85
2019-03-30T15:32:54.955Z,20.23
2019-03-30T15:35:26.651Z,14.53
2019-03-30T15:37:59.291Z,17.17
2019-03-30T15:40:32.298Z,15.58
2019-03-30T15:43:06.288Z,16.57
2019-03-30T15:45:38.117Z,15.55
2019-03-30T15:48:11.614Z,15.23
2019-03-30T15:50:44.425Z,16.23
2019-03-30T15:53:17.773Z,14.15
2019-03-30T15:55:51.584Z,15.72
2019-03-30T15:58:22.830Z,17.48
2019-03-30T16:00:54.661Z,14.35
2019-03-30T16:03:26.428Z,18.65
2019-03-30T16:05:58.118Z,15.38
2019-03-30T16:08:30.186Z,15.35
2019-03-30T16:11:04.203Z,16.37
2019-03-30T16:13:36.270Z,13.85
2019-03-30T16:16:13.070Z,17.37
2019-03-30T16:18:45.390Z,16.02
2019-03-30T16:21:17.154Z,14.55
2019-03-30T16:23:48.827Z,15.32
2019-03-30T16:26:22.119Z,14.05
2019-03-30T16:28:54.131Z,14.70
2019-03-30T16:31:26.342Z,15.03
2019-03-30T16:34:26.224Z,16.60
2019-03-30T16:37:19.333Z,14.13
2019-03-30T16:39:50.999Z,15.95
2019-03-30T16:42:22.732Z,16.30
2019-03-30T16:44:54.551Z,15.05
2019-03-30T16:47:26.256Z,16.48
2019-03-30T16:49:58.106Z,17.17
2019-03-30T16:52:29.670Z,18.37
2019-03-30T16:55:05.114Z,13.83
2019-03-30T16:57:43.583Z,18.60
2019-03-30T17:02:43.685Z,17.00
2019-03-30T17:05:15.686Z,13.35
2019-03-30T17:07:47.388Z,17.62
2019-03-30T17:10:19.144Z,14.35
2019-03-30T17:12:51.233Z,15.43
2019-03-30T17:15:23.082Z,17.25
2019-03-30T17:17:54.773Z,15.25
2019-03-30T17:20:27.231Z,15.28
2019-03-30T17:22:59.172Z,15.23
2019-03-30T17:25:49.317Z,14.90
2019-03-30T17:28:21.278Z,16.85
2019-03-30T17:30:53.088Z,17.07
2019-03-30T17:33:24.756Z,18.00
2019-03-30T17:35:56.736Z,15.55
2019-03-30T17:38:28.477Z,15.18
2019-03-30T17:41:00.172Z,14.43
2019-03-30T17:43:31.899Z,16.00
2019-03-30T17:46:03.581Z,17.42
2019-03-30T17:48:35.254Z,16.82
2019-03-30T17:51:07.175Z,17.52
2019-03-30T17:53:39.594Z,14.18
2019-03-30T17:56:11.634Z,17.30
2019-03-30T17:58:43.178Z,19.73
2019-03-30T18:01:15.914Z,15.88
2019-03-30T18:03:47.729Z,18.02
2019-03-30T18:06:19.592Z,17.87
2019-03-30T18:08:51.173Z,19.10
2019-03-30T18:11:22.919Z,16.87
2019-03-30T18:13:54.750Z,16.17
2019-03-30T18:16:26.502Z,17.55
2019-03-30T18:18:58.389Z,17.57
2019-03-30T18:21:30.312Z,16.05
2019-03-30T18:24:02.227Z,15.70
2019-03-30T18:26:33.958Z,15.40
2019-03-30T18:29:06.037Z,17.00
2019-03-30T18:31:38.011Z,13.70
2019-03-30T18:34:09.967Z,17.70
2019-03-30T18:36:42.658Z,17.57
2019-03-30T18:39:14.617Z,16.80
2019-03-30T18:41:46.274Z,14.07
2019-03-30T18:44:18.441Z,17.20
2019-03-30T18:46:49.979Z,14.98
2019-03-30T18:49:21.658Z,15.28
2019-03-30T18:51:53.217Z,14.25
2019-03-30T18:54:26.607Z,13.88
2019-03-30T18:56:58.461Z,15.15
2019-03-30T18:59:30.012Z,15.48
2019-03-30T19:02:02.085Z,14.50
2019-03-30T19:04:33.843Z,17.65
2019-03-30T19:07:05.510Z,15.13
2019-03-30T19:09:37.152Z,16.67
2019-03-30T19:12:08.914Z,15.58
2019-03-30T19:14:40.767Z,16.52
2019-03-30T19:17:12.440Z,16.90
2019-03-30T19:19:44.394Z,15.45
2019-03-30T19:22:16.222Z,16.97
2019-03-30T19:24:47.924Z,18.37
2019-03-30T19:27:19.807Z,14.58
2019-03-30T19:29:51.430Z,13.98
2019-03-30T19:32:23.316Z,15.18
2019-03-30T19:34:55.276Z,14.63
2019-03-30T19:37:26.939Z,19.95
2019-03-30T19:39:58.988Z,15.25
2019-03-30T19:42:31.476Z,15.48
2019-03-30T19:45:03.228Z,18.02
2019-03-30T19:47:35.073Z,14.00
2019-03-30T19:50:07.570Z,16.02
2019-03-30T19:52:40.491Z,15.75
2019-03-30T19:55:12.199Z,14.83
2019-03-30T19:57:43.980Z,17.00
2019-03-30T20:00:17.050Z,15.43
2019-03-30T20:02:49.124Z,16.45
2019-03-30T20:05:20.866Z,20.12
2019-03-30T20:07:52.758Z,16.55
2019-03-30T20:10:24.596Z,16.15
2019-03-30T20:12:56.676Z,16.60
2019-03-30T20:15:28.640Z,16.90
2019-03-30T20:18:00.392Z,16.23
2019-03-30T20:20:32.050Z,16.62
2019-03-30T20:23:04.635Z,14.65
2019-03-30T20:25:36.186Z,15.08
2019-03-30T20:28:08.039Z,16.62
2019-03-30T20:30:39.615Z,16.25
2019-03-30T20:33:11.560Z,19.45
2019-03-30T20:35:43.628Z,18.17
2019-03-30T20:38:15.401Z,15.13
2019-03-30T20:40:47.048Z,17.67
2019-03-30T20:43:18.805Z,15.45
2019-03-30T20:45:50.578Z,19.70
2019-03-30T20:48:22.639Z,16.02
2019-03-30T20:50:54.524Z,18.87
2019-03-30T20:53:26.332Z,17.45
2019-03-30T20:55:58.635Z,21.82
2019-03-30T20:58:30.289Z,16.15
2019-03-30T21:01:02.134Z,18.65
2019-03-30T21:03:33.715Z,16.00
2019-03-30T21:06:05.379Z,17.35
2019-03-30T21:08:37.226Z,17.60
2019-03-30T21:11:08.887Z,16.37
2019-03-30T21:13:40.454Z,16.60
2019-03-30T21:16:12.282Z,17.10
2019-03-30T21:18:44.060Z,18.15
2019-03-30T21:21:15.826Z,16.90
2019-03-30T21:23:47.492Z,19.02
2019-03-30T21:26:19.539Z,16.25
2019-03-30T21:28:51.413Z,15.83
2019-03-30T21:31:23.049Z,18.23
2019-03-30T21:33:54.820Z,18.10
2019-03-30T21:36:26.601Z,13.80
2019-03-30T21:38:58.658Z,14.53
2019-03-30T21:41:30.391Z,17.12
2019-03-30T21:44:22.282Z,17.02
2019-03-30T21:46:53.608Z,17.37
2019-03-30T21:49:25.857Z,18.10
2019-03-30T21:51:57.706Z,15.50
2019-03-30T21:54:29.467Z,18.20
2019-03-30T21:57:01.151Z,16.32
2019-03-30T21:59:32.800Z,18.85
2019-03-30T22:02:04.650Z,16.35
2019-03-30T22:04:36.330Z,16.80
2019-03-30T22:07:08.678Z,17.42
2019-03-30T22:09:40.665Z,20.80
2019-03-30T22:12:12.529Z,17.80
2019-03-30T22:14:44.273Z,14.30
2019-03-30T22:17:16.067Z,17.10
2019-03-30T22:19:47.875Z,18.52
2019-03-30T22:22:19.469Z,17.30
2019-03-30T22:24:51.780Z,21.73
2019-03-30T22:27:24.199Z,16.75
2019-03-30T22:29:56.102Z,15.10
2019-03-30T22:32:28.128Z,18.30
2019-03-30T22:35:00.138Z,16.57
2019-03-30T22:37:32.158Z,19.50
2019-03-30T22:40:04.434Z,17.85
2019-03-30T22:42:36.282Z,20.08
2019-03-30T22:45:09.397Z,18.70
2019-03-30T22:47:41.244Z,18.48
2019-03-30T22:50:13.618Z,18.65
2019-03-30T22:52:45.186Z,18.80
2019-03-30T22:55:16.952Z,18.92
2019-03-30T22:57:48.721Z,14.60
2019-03-30T23:00:39.342Z,19.95
2019-03-30T23:03:12.155Z,15.70
2019-03-30T23:05:44.055Z,20.60
2019-03-30T23:08:15.788Z,18.40
2019-03-30T23:10:47.564Z,16.02
2019-03-30T23:13:19.829Z,18.90
2019-03-30T23:15:51.999Z,15.03
2019-03-30T23:18:24.375Z,17.80
2019-03-30T23:20:56.544Z,19.02
2019-03-30T23:23:28.439Z,16.00
2019-03-30T23:26:00.268Z,19.70
2019-03-30T23:28:32.384Z,16.17
2019-03-30T23:31:04.212Z,21.82
2019-03-30T23:33:35.878Z,20.12
2019-03-30T23:36:07.911Z,17.40
2019-03-30T23:38:39.589Z,19.95
2019-03-30T23:41:11.548Z,21.23
2019-03-30T23:43:43.329Z,15.68
2019-03-30T23:46:15.160Z,16.37
2019-03-30T23:48:46.834Z,17.17
2019-03-30T23:51:18.693Z,23.10
2019-03-30T23:54:09.958Z,18.00
2019-03-30T23:56:42.270Z,17.55
2019-03-30T23:59:14.142Z,20.10
